Terminal Aerodrome Forecast
Issued by NWS

Home | Current Version | Previous Version | Text Only | Print | Product List | Glossary On
Versions: 1 2 3 4 5 6 7 8 9 10 11 12 13 14 15 16
000
FTAK31 PAJN 152342 RRB
TAFAPG
TAF
PAPG 152342Z 1600/1624 VRB05KT P6SM VCSH FEW008 BKN020 OVC035
      TEMPO 1600/1603 -SHRA BKN008 OVC015
     FM160800 12009KT 4SM -RA BR BKN008 OVC015
     FM161500 12012G18KT 3SM RA BR BKN003 OVC008
     FM162000 12009KT 5SM -RA BR BKN006 OVC012
      AMD LTD TO CLD VIS AND WIND 1606/1615=

USA.gov is the U.S. government's official web portal to all federal, state and local government web resources and services.